sensor_id;sensor_type;location;lat;lon;timestamp;P1;durP1;ratioP1;P2;durP2;ratioP2
50631;SDS011;49583;45.590;-122.498;2022-10-20T00:00:40;96.70;;;63.80;;
50631;SDS011;49583;45.590;-122.498;2022-10-20T00:03:05;96.10;;;60.20;;
50631;SDS011;49583;45.590;-122.498;2022-10-20T00:05:15;94.60;;;62.00;;
50631;SDS011;49583;45.590;-122.498;2022-10-20T00:07:23;93.40;;;62.40;;
50631;SDS011;49583;45.590;-122.498;2022-10-20T00:09:32;88.70;;;59.10;;
50631;SDS011;49583;45.590;-122.498;2022-10-20T00:11:40;97.90;;;61.20;;
50631;SDS011;49583;45.590;-122.498;2022-10-20T00:13:53;97.00;;;64.00;;
50631;SDS011;49583;45.590;-122.498;2022-10-20T00:16:01;96.10;;;62.90;;
50631;SDS011;49583;45.590;-122.498;2022-10-20T00:18:09;98.90;;;63.80;;
50631;SDS011;49583;45.590;-122.498;2022-10-20T00:20:16;90.40;;;62.30;;
50631;SDS011;49583;45.590;-122.498;2022-10-20T00:22:24;92.70;;;62.30;;
50631;SDS011;49583;45.590;-122.498;2022-10-20T00:24:32;96.60;;;62.70;;
50631;SDS011;49583;45.590;-122.498;2022-10-20T00:26:41;93.80;;;64.00;;
50631;SDS011;49583;45.590;-122.498;2022-10-20T00:28:56;102.00;;;63.80;;
50631;SDS011;49583;45.590;-122.498;2022-10-20T00:31:07;99.70;;;62.20;;
50631;SDS011;49583;45.590;-122.498;2022-10-20T00:33:16;104.30;;;63.20;;
50631;SDS011;49583;45.590;-122.498;2022-10-20T00:35:24;105.00;;;62.60;;
50631;SDS011;49583;45.590;-122.498;2022-10-20T00:37:31;100.20;;;63.80;;
50631;SDS011;49583;45.590;-122.498;2022-10-20T00:39:39;102.60;;;65.10;;
50631;SDS011;49583;45.590;-122.498;2022-10-20T00:41:48;98.10;;;63.30;;
50631;SDS011;49583;45.590;-122.498;2022-10-20T00:44:02;97.50;;;63.00;;
50631;SDS011;49583;45.590;-122.498;2022-10-20T00:46:36;94.30;;;62.40;;
50631;SDS011;49583;45.590;-122.498;2022-10-20T00:48:54;97.80;;;61.30;;
50631;SDS011;49583;45.590;-122.498;2022-10-20T00:51:06;94.80;;;63.40;;
50631;SDS011;49583;45.590;-122.498;2022-10-20T00:53:15;96.50;;;62.70;;
50631;SDS011;49583;45.590;-122.498;2022-10-20T00:55:30;101.20;;;62.70;;
50631;SDS011;49583;45.590;-122.498;2022-10-20T00:57:44;101.50;;;63.30;;
50631;SDS011;49583;45.590;-122.498;2022-10-20T00:59:55;101.00;;;63.30;;
50631;SDS011;49583;45.590;-122.498;2022-10-20T01:02:05;97.20;;;63.20;;
50631;SDS011;49583;45.590;-122.498;2022-10-20T01:06:23;101.70;;;60.50;;
50631;SDS011;49583;45.590;-122.498;2022-10-20T01:08:33;104.60;;;61.90;;
50631;SDS011;49583;45.590;-122.498;2022-10-20T01:11:03;101.40;;;65.10;;
50631;SDS011;49583;45.590;-122.498;2022-10-20T01:13:22;102.30;;;62.50;;
50631;SDS011;49583;45.590;-122.498;2022-10-20T01:28:45;104.80;;;67.30;;
50631;SDS011;49583;45.590;-122.498;2022-10-20T01:30:44;106.60;;;68.70;;
50631;SDS011;49583;45.590;-122.498;2022-10-20T01:35:25;111.10;;;69.60;;
50631;SDS011;49583;45.590;-122.498;2022-10-20T01:42:33;118.70;;;75.10;;
50631;SDS011;49583;45.590;-122.498;2022-10-20T01:44:43;120.50;;;76.90;;
50631;SDS011;49583;45.590;-122.498;2022-10-20T01:46:52;124.60;;;77.20;;
50631;SDS011;49583;45.590;-122.498;2022-10-20T01:49:01;128.90;;;79.70;;
50631;SDS011;49583;45.590;-122.498;2022-10-20T01:51:09;134.40;;;82.70;;
50631;SDS011;49583;45.590;-122.498;2022-10-20T01:53:17;142.20;;;81.70;;
50631;SDS011;49583;45.590;-122.498;2022-10-20T01:55:25;138.00;;;83.70;;
50631;SDS011;49583;45.590;-122.498;2022-10-20T02:00:06;146.20;;;83.90;;
50631;SDS011;49583;45.590;-122.498;2022-10-20T02:04:29;139.70;;;83.80;;
50631;SDS011;49583;45.590;-122.498;2022-10-20T02:07:07;146.70;;;86.80;;
50631;SDS011;49583;45.590;-122.498;2022-10-20T02:09:29;140.40;;;84.70;;
50631;SDS011;49583;45.590;-122.498;2022-10-20T02:11:42;153.20;;;88.10;;
50631;SDS011;49583;45.590;-122.498;2022-10-20T02:14:04;150.30;;;85.40;;
50631;SDS011;49583;45.590;-122.498;2022-10-20T02:16:36;147.80;;;88.00;;
50631;SDS011;49583;45.590;-122.498;2022-10-20T02:18:47;147.00;;;85.80;;
50631;SDS011;49583;45.590;-122.498;2022-10-20T02:20:55;139.20;;;84.70;;
50631;SDS011;49583;45.590;-122.498;2022-10-20T02:23:04;139.10;;;85.00;;
50631;SDS011;49583;45.590;-122.498;2022-10-20T02:25:11;146.10;;;90.50;;
50631;SDS011;49583;45.590;-122.498;2022-10-20T02:27:36;145.10;;;89.80;;
50631;SDS011;49583;45.590;-122.498;2022-10-20T02:29:52;147.30;;;86.50;;
50631;SDS011;49583;45.590;-122.498;2022-10-20T02:32:03;139.50;;;86.10;;
50631;SDS011;49583;45.590;-122.498;2022-10-20T02:34:10;143.80;;;84.80;;
50631;SDS011;49583;45.590;-122.498;2022-10-20T02:36:19;149.40;;;87.90;;
50631;SDS011;49583;45.590;-122.498;2022-10-20T02:38:29;150.70;;;88.00;;
50631;SDS011;49583;45.590;-122.498;2022-10-20T02:40:36;153.60;;;88.20;;
50631;SDS011;49583;45.590;-122.498;2022-10-20T02:42:42;151.10;;;89.00;;
50631;SDS011;49583;45.590;-122.498;2022-10-20T02:44:49;147.40;;;92.00;;
50631;SDS011;49583;45.590;-122.498;2022-10-20T02:46:55;162.80;;;92.10;;
50631;SDS011;49583;45.590;-122.498;2022-10-20T02:49:02;154.10;;;92.30;;
50631;SDS011;49583;45.590;-122.498;2022-10-20T02:51:09;165.00;;;94.10;;
50631;SDS011;49583;45.590;-122.498;2022-10-20T02:53:17;159.80;;;93.50;;
50631;SDS011;49583;45.590;-122.498;2022-10-20T02:55:24;161.90;;;94.20;;
50631;SDS011;49583;45.590;-122.498;2022-10-20T02:57:31;161.10;;;92.80;;
50631;SDS011;49583;45.590;-122.498;2022-10-20T02:59:37;157.50;;;94.10;;
50631;SDS011;49583;45.590;-122.498;2022-10-20T03:01:44;162.40;;;94.30;;
50631;SDS011;49583;45.590;-122.498;2022-10-20T03:03:51;157.80;;;93.30;;
50631;SDS011;49583;45.590;-122.498;2022-10-20T03:06:09;162.70;;;95.90;;
50631;SDS011;49583;45.590;-122.498;2022-10-20T03:08:20;169.50;;;98.30;;
50631;SDS011;49583;45.590;-122.498;2022-10-20T03:10:27;160.20;;;94.10;;
50631;SDS011;49583;45.590;-122.498;2022-10-20T03:12:33;156.90;;;95.10;;
50631;SDS011;49583;45.590;-122.498;2022-10-20T03:14:40;158.00;;;92.30;;
50631;SDS011;49583;45.590;-122.498;2022-10-20T03:16:46;164.50;;;97.10;;
50631;SDS011;49583;45.590;-122.498;2022-10-20T03:18:54;164.20;;;96.40;;
50631;SDS011;49583;45.590;-122.498;2022-10-20T03:21:06;166.00;;;97.60;;
50631;SDS011;49583;45.590;-122.498;2022-10-20T03:23:13;168.60;;;91.40;;
50631;SDS011;49583;45.590;-122.498;2022-10-20T03:25:23;166.10;;;95.80;;
50631;SDS011;49583;45.590;-122.498;2022-10-20T03:27:30;175.30;;;100.50;;
50631;SDS011;49583;45.590;-122.498;2022-10-20T03:29:37;165.00;;;95.80;;
50631;SDS011;49583;45.590;-122.498;2022-10-20T03:31:43;177.30;;;98.50;;
50631;SDS011;49583;45.590;-122.498;2022-10-20T03:33:49;173.60;;;99.20;;
50631;SDS011;49583;45.590;-122.498;2022-10-20T03:35:56;173.70;;;100.60;;
50631;SDS011;49583;45.590;-122.498;2022-10-20T03:38:02;169.50;;;96.40;;
50631;SDS011;49583;45.590;-122.498;2022-10-20T03:40:08;169.50;;;98.50;;
50631;SDS011;49583;45.590;-122.498;2022-10-20T03:42:14;171.00;;;98.90;;
50631;SDS011;49583;45.590;-122.498;2022-10-20T03:44:20;166.70;;;97.20;;
50631;SDS011;49583;45.590;-122.498;2022-10-20T03:46:27;179.70;;;101.80;;
50631;SDS011;49583;45.590;-122.498;2022-10-20T03:48:34;177.30;;;99.90;;
50631;SDS011;49583;45.590;-122.498;2022-10-20T03:50:41;157.70;;;94.50;;
50631;SDS011;49583;45.590;-122.498;2022-10-20T03:52:48;172.70;;;98.10;;
50631;SDS011;49583;45.590;-122.498;2022-10-20T03:54:55;166.80;;;94.40;;
50631;SDS011;49583;45.590;-122.498;2022-10-20T03:57:01;170.20;;;99.50;;
50631;SDS011;49583;45.590;-122.498;2022-10-20T03:59:11;168.70;;;97.00;;
50631;SDS011;49583;45.590;-122.498;2022-10-20T04:01:19;171.50;;;98.00;;
50631;SDS011;49583;45.590;-122.498;2022-10-20T04:03:28;170.60;;;100.70;;
50631;SDS011;49583;45.590;-122.498;2022-10-20T04:05:35;182.20;;;103.90;;
50631;SDS011;49583;45.590;-122.498;2022-10-20T04:07:42;178.50;;;101.30;;
50631;SDS011;49583;45.590;-122.498;2022-10-20T04:09:48;186.30;;;104.00;;
50631;SDS011;49583;45.590;-122.498;2022-10-20T04:11:54;177.70;;;100.50;;
50631;SDS011;49583;45.590;-122.498;2022-10-20T04:14:01;181.40;;;103.10;;
50631;SDS011;49583;45.590;-122.498;2022-10-20T04:16:07;182.50;;;102.60;;
50631;SDS011;49583;45.590;-122.498;2022-10-20T04:18:14;179.40;;;99.60;;
50631;SDS011;49583;45.590;-122.498;2022-10-20T04:20:20;178.70;;;103.40;;
50631;SDS011;49583;45.590;-122.498;2022-10-20T04:22:27;183.50;;;101.40;;
50631;SDS011;49583;45.590;-122.498;2022-10-20T04:24:33;186.60;;;101.70;;
50631;SDS011;49583;45.590;-122.498;2022-10-20T04:26:40;179.40;;;101.50;;
50631;SDS011;49583;45.590;-122.498;2022-10-20T04:28:46;174.80;;;99.90;;
50631;SDS011;49583;45.590;-122.498;2022-10-20T04:30:53;182.50;;;102.10;;
50631;SDS011;49583;45.590;-122.498;2022-10-20T04:33:01;180.60;;;101.50;;
50631;SDS011;49583;45.590;-122.498;2022-10-20T04:35:07;179.50;;;101.60;;
50631;SDS011;49583;45.590;-122.498;2022-10-20T04:37:13;182.60;;;101.90;;
50631;SDS011;49583;45.590;-122.498;2022-10-20T04:39:20;188.40;;;105.10;;
50631;SDS011;49583;45.590;-122.498;2022-10-20T04:41:26;182.00;;;102.00;;
50631;SDS011;49583;45.590;-122.498;2022-10-20T04:43:32;185.90;;;103.30;;
50631;SDS011;49583;45.590;-122.498;2022-10-20T04:45:39;184.30;;;101.90;;
50631;SDS011;49583;45.590;-122.498;2022-10-20T04:47:45;182.60;;;102.40;;
50631;SDS011;49583;45.590;-122.498;2022-10-20T04:49:51;193.30;;;103.10;;
50631;SDS011;49583;45.590;-122.498;2022-10-20T04:51:57;180.30;;;101.20;;
50631;SDS011;49583;45.590;-122.498;2022-10-20T04:54:04;180.70;;;101.50;;
50631;SDS011;49583;45.590;-122.498;2022-10-20T04:56:15;185.60;;;103.80;;
50631;SDS011;49583;45.590;-122.498;2022-10-20T04:58:23;178.30;;;100.00;;
50631;SDS011;49583;45.590;-122.498;2022-10-20T05:00:30;180.70;;;100.60;;
50631;SDS011;49583;45.590;-122.498;2022-10-20T05:02:37;183.10;;;103.30;;
50631;SDS011;49583;45.590;-122.498;2022-10-20T05:04:44;170.20;;;96.60;;
50631;SDS011;49583;45.590;-122.498;2022-10-20T05:06:51;177.60;;;100.00;;
50631;SDS011;49583;45.590;-122.498;2022-10-20T05:08:58;173.20;;;96.90;;
50631;SDS011;49583;45.590;-122.498;2022-10-20T05:11:08;179.60;;;95.00;;
50631;SDS011;49583;45.590;-122.498;2022-10-20T05:13:15;174.40;;;97.30;;
50631;SDS011;49583;45.590;-122.498;2022-10-20T05:15:22;172.20;;;94.40;;
50631;SDS011;49583;45.590;-122.498;2022-10-20T05:17:28;169.10;;;94.40;;
50631;SDS011;49583;45.590;-122.498;2022-10-20T05:19:35;165.20;;;92.20;;
50631;SDS011;49583;45.590;-122.498;2022-10-20T05:21:41;167.20;;;92.70;;
50631;SDS011;49583;45.590;-122.498;2022-10-20T05:23:48;167.90;;;92.80;;
50631;SDS011;49583;45.590;-122.498;2022-10-20T05:26:03;163.90;;;93.00;;
50631;SDS011;49583;45.590;-122.498;2022-10-20T05:28:11;165.40;;;91.90;;
50631;SDS011;49583;45.590;-122.498;2022-10-20T05:30:17;157.30;;;87.90;;
50631;SDS011;49583;45.590;-122.498;2022-10-20T05:32:24;173.10;;;93.20;;
50631;SDS011;49583;45.590;-122.498;2022-10-20T05:34:31;161.20;;;90.80;;
50631;SDS011;49583;45.590;-122.498;2022-10-20T05:36:38;160.30;;;89.50;;
50631;SDS011;49583;45.590;-122.498;2022-10-20T05:38:45;167.60;;;86.80;;
50631;SDS011;49583;45.590;-122.498;2022-10-20T05:40:51;157.20;;;84.80;;
50631;SDS011;49583;45.590;-122.498;2022-10-20T05:42:58;149.40;;;81.50;;
50631;SDS011;49583;45.590;-122.498;2022-10-20T05:45:05;150.10;;;83.50;;
50631;SDS011;49583;45.590;-122.498;2022-10-20T05:47:12;149.80;;;86.70;;
50631;SDS011;49583;45.590;-122.498;2022-10-20T05:49:19;155.30;;;85.30;;
50631;SDS011;49583;45.590;-122.498;2022-10-20T05:51:28;157.90;;;85.50;;
50631;SDS011;49583;45.590;-122.498;2022-10-20T05:53:36;157.90;;;89.10;;
50631;SDS011;49583;45.590;-122.498;2022-10-20T05:55:44;168.80;;;90.60;;
50631;SDS011;49583;45.590;-122.498;2022-10-20T05:57:50;155.70;;;88.20;;
50631;SDS011;49583;45.590;-122.498;2022-10-20T05:59:56;156.20;;;89.20;;
50631;SDS011;49583;45.590;-122.498;2022-10-20T06:02:03;162.40;;;89.30;;
50631;SDS011;49583;45.590;-122.498;2022-10-20T06:04:10;169.70;;;92.70;;
50631;SDS011;49583;45.590;-122.498;2022-10-20T06:06:17;166.60;;;92.80;;
50631;SDS011;49583;45.590;-122.498;2022-10-20T06:08:27;172.40;;;95.20;;
50631;SDS011;49583;45.590;-122.498;2022-10-20T06:10:35;178.20;;;96.90;;
50631;SDS011;49583;45.590;-122.498;2022-10-20T06:12:42;166.30;;;92.20;;
50631;SDS011;49583;45.590;-122.498;2022-10-20T06:14:48;173.70;;;95.60;;
50631;SDS011;49583;45.590;-122.498;2022-10-20T06:16:55;173.50;;;95.20;;
50631;SDS011;49583;45.590;-122.498;2022-10-20T06:19:01;170.60;;;94.10;;
50631;SDS011;49583;45.590;-122.498;2022-10-20T06:21:12;177.40;;;94.40;;
50631;SDS011;49583;45.590;-122.498;2022-10-20T06:25:26;166.50;;;89.60;;
50631;SDS011;49583;45.590;-122.498;2022-10-20T06:27:33;172.70;;;96.90;;
50631;SDS011;49583;45.590;-122.498;2022-10-20T06:29:39;177.80;;;95.90;;
50631;SDS011;49583;45.590;-122.498;2022-10-20T06:31:47;170.10;;;94.20;;
50631;SDS011;49583;45.590;-122.498;2022-10-20T06:33:55;173.10;;;95.40;;
50631;SDS011;49583;45.590;-122.498;2022-10-20T06:36:02;171.10;;;95.20;;
50631;SDS011;49583;45.590;-122.498;2022-10-20T06:38:09;171.60;;;93.00;;
50631;SDS011;49583;45.590;-122.498;2022-10-20T06:40:16;171.50;;;93.00;;
50631;SDS011;49583;45.590;-122.498;2022-10-20T06:42:23;166.50;;;94.20;;
50631;SDS011;49583;45.590;-122.498;2022-10-20T06:44:30;175.00;;;93.10;;
50631;SDS011;49583;45.590;-122.498;2022-10-20T06:46:36;177.80;;;97.80;;
50631;SDS011;49583;45.590;-122.498;2022-10-20T06:48:43;184.80;;;102.40;;
50631;SDS011;49583;45.590;-122.498;2022-10-20T06:50:54;170.10;;;96.90;;
50631;SDS011;49583;45.590;-122.498;2022-10-20T06:53:02;174.30;;;95.90;;
50631;SDS011;49583;45.590;-122.498;2022-10-20T06:55:08;180.10;;;101.20;;
50631;SDS011;49583;45.590;-122.498;2022-10-20T06:57:14;176.40;;;99.00;;
50631;SDS011;49583;45.590;-122.498;2022-10-20T06:59:20;173.80;;;97.20;;
50631;SDS011;49583;45.590;-122.498;2022-10-20T07:01:29;181.70;;;96.70;;
50631;SDS011;49583;45.590;-122.498;2022-10-20T07:03:41;175.60;;;96.90;;
50631;SDS011;49583;45.590;-122.498;2022-10-20T07:05:48;184.50;;;100.00;;
50631;SDS011;49583;45.590;-122.498;2022-10-20T07:07:54;171.20;;;96.80;;
50631;SDS011;49583;45.590;-122.498;2022-10-20T07:10:01;174.60;;;96.40;;
50631;SDS011;49583;45.590;-122.498;2022-10-20T07:12:08;179.20;;;94.80;;
50631;SDS011;49583;45.590;-122.498;2022-10-20T07:14:14;174.40;;;95.20;;
50631;SDS011;49583;45.590;-122.498;2022-10-20T07:16:22;176.30;;;95.90;;
50631;SDS011;49583;45.590;-122.498;2022-10-20T07:18:29;174.30;;;95.80;;
50631;SDS011;49583;45.590;-122.498;2022-10-20T07:20:36;182.70;;;100.00;;
50631;SDS011;49583;45.590;-122.498;2022-10-20T07:22:42;181.50;;;100.40;;
50631;SDS011;49583;45.590;-122.498;2022-10-20T07:24:49;185.20;;;100.00;;
50631;SDS011;49583;45.590;-122.498;2022-10-20T07:26:56;180.30;;;96.90;;
50631;SDS011;49583;45.590;-122.498;2022-10-20T07:29:02;184.10;;;100.50;;
50631;SDS011;49583;45.590;-122.498;2022-10-20T07:31:10;187.60;;;99.30;;
50631;SDS011;49583;45.590;-122.498;2022-10-20T07:33:19;184.60;;;97.70;;
50631;SDS011;49583;45.590;-122.498;2022-10-20T07:35:26;180.80;;;98.60;;
50631;SDS011;49583;45.590;-122.498;2022-10-20T07:37:34;175.40;;;96.50;;
50631;SDS011;49583;45.590;-122.498;2022-10-20T07:39:41;182.40;;;102.10;;
50631;SDS011;49583;45.590;-122.498;2022-10-20T07:41:48;181.60;;;97.60;;
50631;SDS011;49583;45.590;-122.498;2022-10-20T07:43:55;180.90;;;96.60;;
50631;SDS011;49583;45.590;-122.498;2022-10-20T07:46:02;188.10;;;98.90;;
50631;SDS011;49583;45.590;-122.498;2022-10-20T07:48:08;188.70;;;104.30;;
50631;SDS011;49583;45.590;-122.498;2022-10-20T07:50:15;209.00;;;113.50;;
50631;SDS011;49583;45.590;-122.498;2022-10-20T07:52:22;210.70;;;111.00;;
50631;SDS011;49583;45.590;-122.498;2022-10-20T07:54:28;206.80;;;107.70;;
50631;SDS011;49583;45.590;-122.498;2022-10-20T07:56:39;191.90;;;106.50;;
50631;SDS011;49583;45.590;-122.498;2022-10-20T07:58:47;200.50;;;104.50;;
50631;SDS011;49583;45.590;-122.498;2022-10-20T08:00:54;186.90;;;101.60;;
50631;SDS011;49583;45.590;-122.498;2022-10-20T08:03:00;191.50;;;104.50;;
50631;SDS011;49583;45.590;-122.498;2022-10-20T08:05:07;176.60;;;98.30;;
50631;SDS011;49583;45.590;-122.498;2022-10-20T08:07:14;185.90;;;98.50;;
50631;SDS011;49583;45.590;-122.498;2022-10-20T08:09:20;182.10;;;97.60;;
50631;SDS011;49583;45.590;-122.498;2022-10-20T08:11:26;184.30;;;97.50;;
50631;SDS011;49583;45.590;-122.498;2022-10-20T08:13:33;187.90;;;101.10;;
50631;SDS011;49583;45.590;-122.498;2022-10-20T08:15:39;201.70;;;105.20;;
50631;SDS011;49583;45.590;-122.498;2022-10-20T08:17:48;188.20;;;103.10;;
50631;SDS011;49583;45.590;-122.498;2022-10-20T08:19:54;193.30;;;104.70;;
50631;SDS011;49583;45.590;-122.498;2022-10-20T08:22:13;207.80;;;111.40;;
50631;SDS011;49583;45.590;-122.498;2022-10-20T08:24:20;197.40;;;103.70;;
50631;SDS011;49583;45.590;-122.498;2022-10-20T08:26:27;193.80;;;104.20;;
50631;SDS011;49583;45.590;-122.498;2022-10-20T08:28:33;201.70;;;108.50;;
50631;SDS011;49583;45.590;-122.498;2022-10-20T08:30:40;207.30;;;108.90;;
50631;SDS011;49583;45.590;-122.498;2022-10-20T08:32:49;198.30;;;106.70;;
50631;SDS011;49583;45.590;-122.498;2022-10-20T08:34:57;203.90;;;108.30;;
50631;SDS011;49583;45.590;-122.498;2022-10-20T08:37:03;205.90;;;110.60;;
50631;SDS011;49583;45.590;-122.498;2022-10-20T08:39:10;199.00;;;106.70;;
50631;SDS011;49583;45.590;-122.498;2022-10-20T08:41:18;195.10;;;107.60;;
50631;SDS011;49583;45.590;-122.498;2022-10-20T08:43:53;193.40;;;105.70;;
50631;SDS011;49583;45.590;-122.498;2022-10-20T08:46:00;196.10;;;106.50;;
50631;SDS011;49583;45.590;-122.498;2022-10-20T08:48:07;186.80;;;100.20;;
50631;SDS011;49583;45.590;-122.498;2022-10-20T08:50:25;188.20;;;100.90;;
50631;SDS011;49583;45.590;-122.498;2022-10-20T08:52:32;186.50;;;102.40;;
50631;SDS011;49583;45.590;-122.498;2022-10-20T08:54:39;187.50;;;100.30;;
50631;SDS011;49583;45.590;-122.498;2022-10-20T08:56:45;195.10;;;102.70;;
50631;SDS011;49583;45.590;-122.498;2022-10-20T08:58:52;186.20;;;98.20;;
50631;SDS011;49583;45.590;-122.498;2022-10-20T09:00:59;187.80;;;100.90;;
50631;SDS011;49583;45.590;-122.498;2022-10-20T09:03:10;193.90;;;103.00;;
50631;SDS011;49583;45.590;-122.498;2022-10-20T09:05:25;197.50;;;105.50;;
50631;SDS011;49583;45.590;-122.498;2022-10-20T09:07:37;199.30;;;103.30;;
50631;SDS011;49583;45.590;-122.498;2022-10-20T09:09:44;202.40;;;106.60;;
50631;SDS011;49583;45.590;-122.498;2022-10-20T09:11:51;194.30;;;102.80;;
50631;SDS011;49583;45.590;-122.498;2022-10-20T09:14:09;203.70;;;109.30;;
50631;SDS011;49583;45.590;-122.498;2022-10-20T09:16:24;194.00;;;105.80;;
50631;SDS011;49583;45.590;-122.498;2022-10-20T09:18:45;191.00;;;101.00;;
50631;SDS011;49583;45.590;-122.498;2022-10-20T09:21:06;197.50;;;106.10;;
50631;SDS011;49583;45.590;-122.498;2022-10-20T09:23:20;202.90;;;107.20;;
50631;SDS011;49583;45.590;-122.498;2022-10-20T09:25:50;206.20;;;109.40;;
50631;SDS011;49583;45.590;-122.498;2022-10-20T09:27:58;201.00;;;113.50;;
50631;SDS011;49583;45.590;-122.498;2022-10-20T09:30:22;195.80;;;105.90;;
50631;SDS011;49583;45.590;-122.498;2022-10-20T09:32:34;217.80;;;116.20;;
50631;SDS011;49583;45.590;-122.498;2022-10-20T09:38:01;207.50;;;114.70;;
50631;SDS011;49583;45.590;-122.498;2022-10-20T09:40:15;219.90;;;117.30;;
50631;SDS011;49583;45.590;-122.498;2022-10-20T09:42:24;230.20;;;125.10;;
50631;SDS011;49583;45.590;-122.498;2022-10-20T09:44:33;234.40;;;124.50;;
50631;SDS011;49583;45.590;-122.498;2022-10-20T09:46:44;229.20;;;124.50;;
50631;SDS011;49583;45.590;-122.498;2022-10-20T09:48:55;223.00;;;120.20;;
50631;SDS011;49583;45.590;-122.498;2022-10-20T09:51:04;231.60;;;123.50;;
50631;SDS011;49583;45.590;-122.498;2022-10-20T09:53:18;218.10;;;116.30;;
50631;SDS011;49583;45.590;-122.498;2022-10-20T09:55:29;226.30;;;125.20;;
50631;SDS011;49583;45.590;-122.498;2022-10-20T09:57:38;220.80;;;117.80;;
50631;SDS011;49583;45.590;-122.498;2022-10-20T09:59:45;222.10;;;119.70;;
50631;SDS011;49583;45.590;-122.498;2022-10-20T10:01:59;233.10;;;119.30;;
50631;SDS011;49583;45.590;-122.498;2022-10-20T10:04:10;208.90;;;114.50;;
50631;SDS011;49583;45.590;-122.498;2022-10-20T10:08:44;201.20;;;112.40;;
50631;SDS011;49583;45.590;-122.498;2022-10-20T10:11:01;177.30;;;99.90;;
50631;SDS011;49583;45.590;-122.498;2022-10-20T10:13:18;203.00;;;109.90;;
50631;SDS011;49583;45.590;-122.498;2022-10-20T10:15:32;195.80;;;106.90;;
50631;SDS011;49583;45.590;-122.498;2022-10-20T10:17:42;200.00;;;107.30;;
50631;SDS011;49583;45.590;-122.498;2022-10-20T10:19:48;181.90;;;98.60;;
50631;SDS011;49583;45.590;-122.498;2022-10-20T10:22:00;155.70;;;88.10;;
50631;SDS011;49583;45.590;-122.498;2022-10-20T10:24:09;163.30;;;86.60;;
50631;SDS011;49583;45.590;-122.498;2022-10-20T10:27:02;163.00;;;88.50;;
50631;SDS011;49583;45.590;-122.498;2022-10-20T10:29:20;154.50;;;82.30;;
50631;SDS011;49583;45.590;-122.498;2022-10-20T10:31:33;146.80;;;81.10;;
50631;SDS011;49583;45.590;-122.498;2022-10-20T10:33:39;160.60;;;82.90;;
50631;SDS011;49583;45.590;-122.498;2022-10-20T10:35:45;153.10;;;84.50;;
50631;SDS011;49583;45.590;-122.498;2022-10-20T10:37:52;150.70;;;83.00;;
50631;SDS011;49583;45.590;-122.498;2022-10-20T10:40:00;148.20;;;80.40;;
50631;SDS011;49583;45.590;-122.498;2022-10-20T10:42:26;137.60;;;77.90;;
50631;SDS011;49583;45.590;-122.498;2022-10-20T10:45:03;140.40;;;82.10;;
50631;SDS011;49583;45.590;-122.498;2022-10-20T10:54:55;164.10;;;87.20;;
50631;SDS011;49583;45.590;-122.498;2022-10-20T10:57:44;148.80;;;82.70;;
50631;SDS011;49583;45.590;-122.498;2022-10-20T10:59:59;149.90;;;84.50;;
50631;SDS011;49583;45.590;-122.498;2022-10-20T11:09:39;171.20;;;93.80;;
50631;SDS011;49583;45.590;-122.498;2022-10-20T11:24:38;166.80;;;89.30;;
50631;SDS011;49583;45.590;-122.498;2022-10-20T11:26:51;152.10;;;82.10;;
50631;SDS011;49583;45.590;-122.498;2022-10-20T11:29:07;138.50;;;77.10;;
50631;SDS011;49583;45.590;-122.498;2022-10-20T11:31:40;160.70;;;86.40;;
50631;SDS011;49583;45.590;-122.498;2022-10-20T11:34:03;149.10;;;79.00;;
50631;SDS011;49583;45.590;-122.498;2022-10-20T11:36:15;140.40;;;75.30;;
50631;SDS011;49583;45.590;-122.498;2022-10-20T11:45:55;143.40;;;74.10;;
50631;SDS011;49583;45.590;-122.498;2022-10-20T11:50:16;144.10;;;79.00;;
50631;SDS011;49583;45.590;-122.498;2022-10-20T12:12:42;136.00;;;74.50;;
50631;SDS011;49583;45.590;-122.498;2022-10-20T12:14:55;135.70;;;73.10;;
50631;SDS011;49583;45.590;-122.498;2022-10-20T12:19:21;131.80;;;69.60;;
50631;SDS011;49583;45.590;-122.498;2022-10-20T12:24:01;123.50;;;65.90;;
50631;SDS011;49583;45.590;-122.498;2022-10-20T12:28:46;127.40;;;67.40;;
50631;SDS011;49583;45.590;-122.498;2022-10-20T12:31:03;131.50;;;67.90;;
50631;SDS011;49583;45.590;-122.498;2022-10-20T12:33:15;134.00;;;69.40;;
50631;SDS011;49583;45.590;-122.498;2022-10-20T12:37:30;128.00;;;70.30;;
50631;SDS011;49583;45.590;-122.498;2022-10-20T12:39:38;133.80;;;71.00;;
50631;SDS011;49583;45.590;-122.498;2022-10-20T12:41:56;129.90;;;71.40;;
50631;SDS011;49583;45.590;-122.498;2022-10-20T12:44:06;134.10;;;70.00;;
50631;SDS011;49583;45.590;-122.498;2022-10-20T12:46:21;127.60;;;70.20;;
50631;SDS011;49583;45.590;-122.498;2022-10-20T12:48:33;106.80;;;59.00;;
50631;SDS011;49583;45.590;-122.498;2022-10-20T12:50:45;102.20;;;56.40;;
50631;SDS011;49583;45.590;-122.498;2022-10-20T12:52:56;101.70;;;55.00;;
50631;SDS011;49583;45.590;-122.498;2022-10-20T12:55:17;104.40;;;55.80;;
50631;SDS011;49583;45.590;-122.498;2022-10-20T12:57:37;122.10;;;66.40;;
50631;SDS011;49583;45.590;-122.498;2022-10-20T12:59:46;119.70;;;64.60;;
50631;SDS011;49583;45.590;-122.498;2022-10-20T13:07:02;123.80;;;63.10;;
50631;SDS011;49583;45.590;-122.498;2022-10-20T13:09:18;122.70;;;64.70;;
50631;SDS011;49583;45.590;-122.498;2022-10-20T13:13:44;125.80;;;69.00;;
50631;SDS011;49583;45.590;-122.498;2022-10-20T13:16:10;116.60;;;65.60;;
50631;SDS011;49583;45.590;-122.498;2022-10-20T13:18:32;122.70;;;66.60;;
50631;SDS011;49583;45.590;-122.498;2022-10-20T13:20:54;124.00;;;68.10;;
50631;SDS011;49583;45.590;-122.498;2022-10-20T13:23:02;125.60;;;65.50;;
50631;SDS011;49583;45.590;-122.498;2022-10-20T13:25:13;119.50;;;65.40;;
50631;SDS011;49583;45.590;-122.498;2022-10-20T13:27:38;124.70;;;69.80;;
50631;SDS011;49583;45.590;-122.498;2022-10-20T13:29:45;125.70;;;69.80;;
50631;SDS011;49583;45.590;-122.498;2022-10-20T13:34:14;140.70;;;75.90;;
50631;SDS011;49583;45.590;-122.498;2022-10-20T13:38:57;140.00;;;72.40;;
50631;SDS011;49583;45.590;-122.498;2022-10-20T13:51:22;149.90;;;75.90;;
50631;SDS011;49583;45.590;-122.498;2022-10-20T13:53:41;159.90;;;81.60;;
50631;SDS011;49583;45.590;-122.498;2022-10-20T13:58:16;166.50;;;84.90;;
50631;SDS011;49583;45.590;-122.498;2022-10-20T14:00:30;152.80;;;79.90;;
50631;SDS011;49583;45.590;-122.498;2022-10-20T14:02:38;153.70;;;81.50;;
50631;SDS011;49583;45.590;-122.498;2022-10-20T14:04:44;118.70;;;61.50;;